createdAt,value
2019-03-03T00:00:04.916Z,973.58
2019-03-03T00:01:04.917Z,973.72
2019-03-03T00:02:05.123Z,973.58
2019-03-03T00:03:05.333Z,973.66
2019-03-03T00:04:04.954Z,973.72
2019-03-03T00:05:05.156Z,973.69
2019-03-03T00:06:05.145Z,973.66
2019-03-03T00:07:04.834Z,973.75
2019-03-03T00:08:05.224Z,973.63
2019-03-03T00:09:05.070Z,973.66
2019-03-03T00:10:04.612Z,973.63
2019-03-03T00:11:05.230Z,973.72
2019-03-03T00:12:05.074Z,973.83
2019-03-03T00:13:05.126Z,973.66
2019-03-03T00:14:05.322Z,973.66
2019-03-03T00:15:05.342Z,973.77
2019-03-03T00:16:04.465Z,973.74
2019-03-03T00:17:04.631Z,973.74
2019-03-03T00:18:05.155Z,973.60
2019-03-03T00:19:04.816Z,973.60
2019-03-03T00:20:05.015Z,973.71
2019-03-03T00:21:04.533Z,973.71
2019-03-03T00:22:04.775Z,973.71
2019-03-03T00:23:04.566Z,973.74
2019-03-03T00:24:04.736Z,973.74
2019-03-03T00:25:05.051Z,973.71
2019-03-03T00:26:05.193Z,973.83
2019-03-03T00:27:05.277Z,973.66
2019-03-03T00:28:05.410Z,973.57
2019-03-03T00:29:10.111Z,973.74
2019-03-03T00:30:05.482Z,973.71
2019-03-03T00:31:04.595Z,973.65
2019-03-03T00:32:04.793Z,973.68
2019-03-03T00:33:05.485Z,973.65
2019-03-03T00:34:05.127Z,973.60
2019-03-03T00:35:04.839Z,973.60
2019-03-03T00:36:05.310Z,973.68
2019-03-03T00:37:04.732Z,973.71
2019-03-03T00:38:04.835Z,973.85
2019-03-03T00:39:05.143Z,973.73
2019-03-03T00:40:05.106Z,973.70
2019-03-03T00:41:05.545Z,973.79
2019-03-03T00:42:04.686Z,973.73
2019-03-03T00:43:04.763Z,973.79
2019-03-03T00:44:04.942Z,973.76
2019-03-03T00:45:05.360Z,973.68
2019-03-03T00:46:04.560Z,973.82
2019-03-03T00:47:04.781Z,973.65
2019-03-03T00:48:04.861Z,973.76
2019-03-03T00:49:05.176Z,973.65
2019-03-03T00:50:05.191Z,973.73
2019-03-03T00:51:05.107Z,973.79
2019-03-03T00:52:04.539Z,973.68
2019-03-03T00:53:05.320Z,973.59
2019-03-03T00:54:05.457Z,973.68
2019-03-03T00:55:04.902Z,973.73
2019-03-03T00:56:04.908Z,973.59
2019-03-03T00:57:05.387Z,973.62
2019-03-03T00:58:05.352Z,973.67
2019-03-03T00:59:04.686Z,973.54
2019-03-03T01:00:04.890Z,973.67
2019-03-03T01:01:05.521Z,973.51
2019-03-03T01:02:06.325Z,973.49
2019-03-03T01:03:05.575Z,973.62
2019-03-03T01:04:05.005Z,973.51
2019-03-03T01:05:05.302Z,973.59
2019-03-03T01:06:05.188Z,973.46
2019-03-03T01:07:04.942Z,973.48
2019-03-03T01:08:05.574Z,973.59
2019-03-03T01:09:05.139Z,973.48
2019-03-03T01:10:05.791Z,973.56
2019-03-03T01:11:05.095Z,973.59
2019-03-03T01:12:05.128Z,973.70
2019-03-03T01:13:05.380Z,973.54
2019-03-03T01:14:05.080Z,973.59
2019-03-03T01:15:05.397Z,973.61
2019-03-03T01:16:04.921Z,973.67
2019-03-03T01:17:05.282Z,973.64
2019-03-03T01:18:05.492Z,973.54
2019-03-03T01:19:05.340Z,973.51
2019-03-03T01:20:04.991Z,973.48
2019-03-03T01:21:05.153Z,973.61
2019-03-03T01:22:04.906Z,973.58
2019-03-03T01:23:05.058Z,973.48
2019-03-03T01:24:05.183Z,973.48
2019-03-03T01:25:04.777Z,973.56
2019-03-03T01:26:06.573Z,973.55
2019-03-03T01:27:04.587Z,973.45
2019-03-03T01:28:04.759Z,973.45
2019-03-03T01:29:09.818Z,973.51
2019-03-03T01:30:05.169Z,973.55
2019-03-03T01:31:05.284Z,973.55
2019-03-03T01:32:05.103Z,973.55
2019-03-03T01:33:05.271Z,973.58
2019-03-03T01:34:05.424Z,973.37
2019-03-03T01:35:04.631Z,973.54
2019-03-03T01:36:04.734Z,973.54
2019-03-03T01:37:04.770Z,973.34
2019-03-03T01:38:05.430Z,973.48
2019-03-03T01:39:04.873Z,973.37
2019-03-03T01:40:05.022Z,973.51
2019-03-03T01:41:06.726Z,973.34
2019-03-03T01:42:05.350Z,973.37
2019-03-03T01:43:04.550Z,973.25
2019-03-03T01:44:04.636Z,973.31
2019-03-03T01:45:05.324Z,973.40
2019-03-03T01:46:04.769Z,973.20
2019-03-03T01:47:05.151Z,973.28
2019-03-03T01:48:04.471Z,973.17
2019-03-03T01:49:04.636Z,973.28
2019-03-03T01:50:04.763Z,973.34
2019-03-03T01:51:05.403Z,973.20
2019-03-03T01:52:04.758Z,973.26
2019-03-03T01:53:05.433Z,973.23
2019-03-03T01:54:04.556Z,973.31
2019-03-03T01:55:04.711Z,973.23
2019-03-03T01:56:05.056Z,973.23
2019-03-03T01:57:05.233Z,973.23
2019-03-03T01:58:05.235Z,973.40
2019-03-03T01:59:04.885Z,973.46
2019-03-03T02:00:05.288Z,973.29
2019-03-03T02:01:04.522Z,973.29
2019-03-03T02:02:04.573Z,973.34
2019-03-03T02:03:04.738Z,973.29
2019-03-03T02:04:05.384Z,973.29
2019-03-03T02:05:04.752Z,973.46
2019-03-03T02:06:04.943Z,973.37
2019-03-03T02:07:04.956Z,973.45
2019-03-03T02:08:05.418Z,973.26
2019-03-03T02:09:04.970Z,973.40
2019-03-03T02:10:05.280Z,973.28
2019-03-03T02:11:04.953Z,973.31
2019-03-03T02:12:04.592Z,973.29
2019-03-03T02:13:05.313Z,973.28
2019-03-03T02:14:05.510Z,973.17
2019-03-03T02:15:04.884Z,973.26
2019-03-03T02:16:04.917Z,973.31
2019-03-03T02:17:04.790Z,973.28
2019-03-03T02:18:04.931Z,973.37
2019-03-03T02:19:04.931Z,973.34
2019-03-03T02:20:05.189Z,973.26
2019-03-03T02:21:05.426Z,973.29
2019-03-03T02:22:05.008Z,973.28
2019-03-03T02:23:05.393Z,973.45
2019-03-03T02:24:04.689Z,973.34
2019-03-03T02:25:05.174Z,973.45
2019-03-03T02:26:05.419Z,973.37
2019-03-03T02:27:05.072Z,973.37
2019-03-03T02:28:05.239Z,973.45
2019-03-03T02:29:05.429Z,973.34
2019-03-03T02:30:05.561Z,973.25
2019-03-03T02:31:04.742Z,973.39
2019-03-03T02:32:05.231Z,973.28
2019-03-03T02:33:05.490Z,973.39
2019-03-03T02:34:05.273Z,973.31
2019-03-03T02:35:05.179Z,973.48
2019-03-03T02:36:04.757Z,973.31
2019-03-03T02:37:05.219Z,973.36
2019-03-03T02:38:10.187Z,973.39
2019-03-03T02:39:04.628Z,973.42
2019-03-03T02:40:04.716Z,973.36
2019-03-03T02:41:05.250Z,973.48
2019-03-03T02:42:04.509Z,973.34
2019-03-03T02:43:05.208Z,973.42
2019-03-03T02:44:05.401Z,973.39
2019-03-03T02:45:05.486Z,973.31
2019-03-03T02:46:05.196Z,973.19
2019-03-03T02:47:04.940Z,973.28
2019-03-03T02:48:05.458Z,973.22
2019-03-03T02:49:05.049Z,973.17
2019-03-03T02:50:04.583Z,973.14
2019-03-03T02:51:05.066Z,973.19
2019-03-03T02:52:05.268Z,973.25
2019-03-03T02:53:04.597Z,973.25
2019-03-03T02:54:04.707Z,973.14
2019-03-03T02:55:05.340Z,973.22
2019-03-03T02:56:05.470Z,973.25
2019-03-03T02:57:04.621Z,973.11
2019-03-03T02:58:04.742Z,973.02
2019-03-03T02:59:05.255Z,973.22
2019-03-03T03:00:04.835Z,973.19
2019-03-03T03:01:05.239Z,973.22
2019-03-03T03:02:04.591Z,973.31
2019-03-03T03:03:04.887Z,973.14
2019-03-03T03:04:05.061Z,973.08
2019-03-03T03:05:05.142Z,973.19
2019-03-03T03:06:05.364Z,973.34
2019-03-03T03:07:04.573Z,973.22
2019-03-03T03:08:04.870Z,973.17
2019-03-03T03:09:05.114Z,973.08
2019-03-03T03:10:05.105Z,973.19
2019-03-03T03:11:04.651Z,973.22
2019-03-03T03:12:04.890Z,973.19
2019-03-03T03:13:05.474Z,973.19
2019-03-03T03:14:05.501Z,973.28
2019-03-03T03:15:04.680Z,973.22
2019-03-03T03:16:04.842Z,973.16
2019-03-03T03:17:05.124Z,973.19
2019-03-03T03:18:04.823Z,973.17
2019-03-03T03:19:05.149Z,973.17
2019-03-03T03:20:04.508Z,973.14
2019-03-03T03:21:04.650Z,973.22
2019-03-03T03:22:05.362Z,973.14
2019-03-03T03:23:05.645Z,973.16
2019-03-03T03:24:04.953Z,973.19
2019-03-03T03:25:05.290Z,973.16
2019-03-03T03:26:04.872Z,973.25
2019-03-03T03:27:07.679Z,973.22
2019-03-03T03:28:05.403Z,973.14
2019-03-03T03:29:05.074Z,973.22
2019-03-03T03:30:05.112Z,973.14
2019-03-03T03:31:04.893Z,973.25
2019-03-03T03:32:05.190Z,973.14
2019-03-03T03:33:05.385Z,973.14
2019-03-03T03:34:05.006Z,973.11
2019-03-03T03:35:05.259Z,973.19
2019-03-03T03:36:05.533Z,973.05
2019-03-03T03:37:04.956Z,973.14
2019-03-03T03:38:05.079Z,973.05
2019-03-03T03:39:04.955Z,973.02
2019-03-03T03:40:05.030Z,973.08
2019-03-03T03:41:05.160Z,973.05
2019-03-03T03:42:04.834Z,973.05
2019-03-03T03:43:04.855Z,973.02
2019-03-03T03:44:05.163Z,973.05
2019-03-03T03:45:05.199Z,972.96
2019-03-03T03:46:10.438Z,973.02
2019-03-03T03:47:04.916Z,972.91
2019-03-03T03:48:05.195Z,972.96
2019-03-03T03:49:05.378Z,972.82
2019-03-03T03:50:04.780Z,973.16
2019-03-03T03:51:05.592Z,972.94
2019-03-03T03:52:04.696Z,972.88
2019-03-03T03:53:05.150Z,972.88
2019-03-03T03:54:04.747Z,972.82
2019-03-03T03:55:04.945Z,972.88
2019-03-03T03:56:04.990Z,972.88
2019-03-03T03:57:05.275Z,972.76
2019-03-03T03:58:04.844Z,972.85
2019-03-03T03:59:05.054Z,972.82
2019-03-03T04:00:04.729Z,972.79
2019-03-03T04:01:05.057Z,972.79
2019-03-03T04:02:05.570Z,972.76
2019-03-03T04:03:05.151Z,972.90
2019-03-03T04:04:04.790Z,972.71
2019-03-03T04:05:04.802Z,972.79
2019-03-03T04:06:10.355Z,972.76
2019-03-03T04:07:04.706Z,972.71
2019-03-03T04:08:05.010Z,972.71
2019-03-03T04:09:05.710Z,972.68
2019-03-03T04:10:04.819Z,972.65
2019-03-03T04:11:05.066Z,972.68
2019-03-03T04:12:05.162Z,972.65
2019-03-03T04:13:04.692Z,972.71
2019-03-03T04:14:05.044Z,972.49
2019-03-03T04:15:05.372Z,972.59
2019-03-03T04:16:05.316Z,972.49
2019-03-03T04:17:04.750Z,972.49
2019-03-03T04:18:04.829Z,972.54
2019-03-03T04:19:05.005Z,972.53
2019-03-03T04:20:05.073Z,972.46
2019-03-03T04:21:05.170Z,972.53
2019-03-03T04:22:04.924Z,972.65
2019-03-03T04:23:04.905Z,972.59
2019-03-03T04:24:05.196Z,972.54
2019-03-03T04:25:05.321Z,972.46
2019-03-03T04:26:04.711Z,972.54
2019-03-03T04:27:04.744Z,972.54
2019-03-03T04:28:04.851Z,972.54
2019-03-03T04:29:09.758Z,972.54
2019-03-03T04:30:05.251Z,972.59
2019-03-03T04:31:05.307Z,972.57
2019-03-03T04:32:04.509Z,972.65
2019-03-03T04:33:04.929Z,972.57
2019-03-03T04:34:04.875Z,972.43
2019-03-03T04:35:05.344Z,972.71
2019-03-03T04:36:05.390Z,972.62
2019-03-03T04:37:04.908Z,972.59
2019-03-03T04:38:05.446Z,972.65
2019-03-03T04:39:04.500Z,972.71
2019-03-03T04:40:05.155Z,972.68
2019-03-03T04:41:04.652Z,972.65
2019-03-03T04:42:04.768Z,972.65
2019-03-03T04:43:04.892Z,972.54
2019-03-03T04:44:04.998Z,972.59
2019-03-03T04:45:04.602Z,972.65
2019-03-03T04:46:04.819Z,972.60
2019-03-03T04:47:04.864Z,972.65
2019-03-03T04:48:05.076Z,972.62
2019-03-03T04:49:10.396Z,972.71
2019-03-03T04:50:04.756Z,972.49
2019-03-03T04:51:05.257Z,972.49
2019-03-03T04:52:04.727Z,972.71
2019-03-03T04:53:04.848Z,972.54
2019-03-03T04:54:05.392Z,972.57
2019-03-03T04:55:04.439Z,972.46
2019-03-03T04:56:04.982Z,972.49
2019-03-03T04:57:05.272Z,972.46
2019-03-03T04:58:04.539Z,972.44
2019-03-03T04:59:04.586Z,972.27
2019-03-03T05:00:05.142Z,972.41
2019-03-03T05:01:04.791Z,972.38
2019-03-03T05:02:05.481Z,972.32
2019-03-03T05:03:05.495Z,972.38
2019-03-03T05:04:04.705Z,972.32
2019-03-03T05:05:04.758Z,972.27
2019-03-03T05:06:05.279Z,972.24
2019-03-03T05:07:04.942Z,972.27
2019-03-03T05:08:05.220Z,972.29
2019-03-03T05:09:05.388Z,972.21
2019-03-03T05:10:04.779Z,972.15
2019-03-03T05:11:05.450Z,972.32
2019-03-03T05:12:04.933Z,972.27
2019-03-03T05:13:04.457Z,972.24
2019-03-03T05:14:04.575Z,972.18
2019-03-03T05:15:04.845Z,972.18
2019-03-03T05:16:04.778Z,972.24
2019-03-03T05:17:05.187Z,972.18
2019-03-03T05:18:04.760Z,972.07
2019-03-03T05:19:04.893Z,972.13
2019-03-03T05:20:04.865Z,971.96
2019-03-03T05:21:05.158Z,971.96
2019-03-03T05:22:05.233Z,971.96
2019-03-03T05:23:05.431Z,971.85
2019-03-03T05:24:04.500Z,971.90
2019-03-03T05:25:05.622Z,971.96
2019-03-03T05:26:04.885Z,971.77
2019-03-03T05:27:05.268Z,972.07
2019-03-03T05:28:04.590Z,971.91
2019-03-03T05:29:09.750Z,972.02
2019-03-03T05:30:05.103Z,971.94
2019-03-03T05:31:04.658Z,971.94
2019-03-03T05:32:05.189Z,971.94
2019-03-03T05:33:04.824Z,971.91
2019-03-03T05:34:05.087Z,971.85
2019-03-03T05:35:05.265Z,971.91
2019-03-03T05:36:05.397Z,971.81
2019-03-03T05:37:05.491Z,971.88
2019-03-03T05:38:05.030Z,971.83
2019-03-03T05:39:05.348Z,971.85
2019-03-03T05:40:05.426Z,971.94
2019-03-03T05:41:04.669Z,971.86
2019-03-03T05:42:04.664Z,971.81
2019-03-03T05:43:05.071Z,971.75
2019-03-03T05:44:04.620Z,971.88
2019-03-03T05:45:04.583Z,971.94
2019-03-03T05:46:04.908Z,971.88
2019-03-03T05:47:06.162Z,971.81
2019-03-03T05:48:05.225Z,971.85
2019-03-03T05:49:10.310Z,971.91
2019-03-03T05:50:04.744Z,971.81
2019-03-03T05:51:04.799Z,971.64
2019-03-03T05:52:04.976Z,971.69
2019-03-03T05:53:05.286Z,971.72
2019-03-03T05:54:04.686Z,971.46
2019-03-03T05:55:04.821Z,971.61
2019-03-03T05:56:05.051Z,971.66
2019-03-03T05:57:04.804Z,971.72
2019-03-03T05:58:05.432Z,971.52
2019-03-03T05:59:05.078Z,971.55
2019-03-03T06:00:05.217Z,971.52
2019-03-03T06:01:05.287Z,971.49
2019-03-03T06:02:04.644Z,971.43
2019-03-03T06:03:04.623Z,971.57
2019-03-03T06:04:04.790Z,971.49
2019-03-03T06:05:05.061Z,971.46
2019-03-03T06:06:05.019Z,971.63
2019-03-03T06:07:05.199Z,971.63
2019-03-03T06:08:05.235Z,971.46
2019-03-03T06:09:05.010Z,971.46
2019-03-03T06:10:05.448Z,971.26
2019-03-03T06:11:04.530Z,971.43
2019-03-03T06:12:04.679Z,971.31
2019-03-03T06:13:05.092Z,971.17
2019-03-03T06:14:05.131Z,971.14
2019-03-03T06:15:05.400Z,971.31
2019-03-03T06:16:05.121Z,971.40
2019-03-03T06:17:04.553Z,971.37
2019-03-03T06:18:05.091Z,971.51
2019-03-03T06:19:04.651Z,971.51
2019-03-03T06:20:04.852Z,971.42
2019-03-03T06:21:05.003Z,971.45
2019-03-03T06:22:04.558Z,971.56
2019-03-03T06:23:04.787Z,971.59
2019-03-03T06:24:05.216Z,971.42
2019-03-03T06:25:04.753Z,971.51
2019-03-03T06:26:04.944Z,971.59
2019-03-03T06:27:05.134Z,971.65
2019-03-03T06:28:04.536Z,971.65
2019-03-03T06:29:04.923Z,971.56
2019-03-03T06:30:05.914Z,971.62
2019-03-03T06:31:04.529Z,971.65
2019-03-03T06:32:04.834Z,971.62
2019-03-03T06:33:05.317Z,971.73
2019-03-03T06:34:05.458Z,971.76
2019-03-03T06:35:05.017Z,971.59
2019-03-03T06:36:05.431Z,971.76
2019-03-03T06:37:05.201Z,971.73
2019-03-03T06:38:05.280Z,971.73
2019-03-03T06:39:05.332Z,971.81
2019-03-03T06:40:05.023Z,971.78
2019-03-03T06:41:05.597Z,971.81
2019-03-03T06:42:05.114Z,971.70
2019-03-03T06:43:04.807Z,971.75
2019-03-03T06:44:04.924Z,971.72
2019-03-03T06:45:04.540Z,971.64
2019-03-03T06:46:04.836Z,971.67
2019-03-03T06:47:05.308Z,971.67
2019-03-03T06:48:04.954Z,971.69
2019-03-03T06:49:05.058Z,971.72
2019-03-03T06:50:05.176Z,971.72
2019-03-03T06:51:05.386Z,971.67
2019-03-03T06:52:05.447Z,971.61
2019-03-03T06:53:04.543Z,971.69
2019-03-03T06:54:04.811Z,971.78
2019-03-03T06:55:04.607Z,971.64
2019-03-03T06:56:04.655Z,971.72
2019-03-03T06:57:05.391Z,971.66
2019-03-03T06:58:05.319Z,971.66
2019-03-03T06:59:05.421Z,971.58
2019-03-03T07:00:05.454Z,971.69
2019-03-03T07:01:05.149Z,971.61
2019-03-03T07:02:05.411Z,971.66
2019-03-03T07:03:04.498Z,971.49
2019-03-03T07:04:04.943Z,971.61
2019-03-03T07:05:04.627Z,971.49
2019-03-03T07:06:05.330Z,971.55
2019-03-03T07:07:05.352Z,971.64
2019-03-03T07:08:04.779Z,971.47
2019-03-03T07:09:06.348Z,971.58
2019-03-03T07:10:05.544Z,971.55
2019-03-03T07:11:05.115Z,971.44
2019-03-03T07:12:05.534Z,971.61
2019-03-03T07:13:04.967Z,971.41
2019-03-03T07:14:05.390Z,971.38
2019-03-03T07:15:05.459Z,971.55
2019-03-03T07:16:05.282Z,971.55
2019-03-03T07:17:04.593Z,971.38
2019-03-03T07:18:05.032Z,971.46
2019-03-03T07:19:05.133Z,971.57
2019-03-03T07:20:04.795Z,971.29
2019-03-03T07:21:05.617Z,971.46
2019-03-03T07:22:06.446Z,971.40
2019-03-03T07:23:05.207Z,971.37
2019-03-03T07:24:05.054Z,971.49
2019-03-03T07:25:04.677Z,971.48
2019-03-03T07:26:04.825Z,971.40
2019-03-03T07:27:05.316Z,971.31
2019-03-03T07:28:05.509Z,971.37
2019-03-03T07:29:10.242Z,971.40
2019-03-03T07:30:04.541Z,971.31
2019-03-03T07:31:05.213Z,971.40
2019-03-03T07:32:05.196Z,971.37
2019-03-03T07:33:05.210Z,971.17
2019-03-03T07:34:04.603Z,971.42
2019-03-03T07:35:05.412Z,971.45
2019-03-03T07:36:04.799Z,971.39
2019-03-03T07:37:05.506Z,971.20
2019-03-03T07:38:05.147Z,971.37
2019-03-03T07:39:05.222Z,971.37
2019-03-03T07:40:04.868Z,971.22
2019-03-03T07:41:05.048Z,971.19
2019-03-03T07:42:05.406Z,971.22
2019-03-03T07:43:05.953Z,971.39
2019-03-03T07:44:05.234Z,971.48
2019-03-03T07:45:05.659Z,971.39
2019-03-03T07:46:05.210Z,971.33
2019-03-03T07:47:05.521Z,971.47
2019-03-03T07:48:05.018Z,971.39
2019-03-03T07:49:05.492Z,971.44
2019-03-03T07:50:04.475Z,971.44
2019-03-03T07:51:04.718Z,971.39
2019-03-03T07:52:04.837Z,971.44
2019-03-03T07:53:05.232Z,971.41
2019-03-03T07:54:05.503Z,971.50
2019-03-03T07:55:04.895Z,971.47
2019-03-03T07:56:04.847Z,971.41
2019-03-03T07:57:05.242Z,971.55
2019-03-03T07:58:05.309Z,971.50
2019-03-03T07:59:05.436Z,971.47
2019-03-03T08:00:05.113Z,971.44
2019-03-03T08:01:05.142Z,971.52
2019-03-03T08:02:09.792Z,971.58
2019-03-03T08:03:05.193Z,971.67
2019-03-03T08:04:04.665Z,971.58
2019-03-03T08:05:04.524Z,971.58
2019-03-03T08:06:04.916Z,971.49
2019-03-03T08:07:05.195Z,971.58
2019-03-03T08:08:05.390Z,971.49
2019-03-03T08:09:04.932Z,971.49
2019-03-03T08:10:04.866Z,971.61
2019-03-03T08:11:05.106Z,971.58
2019-03-03T08:12:04.662Z,971.69
2019-03-03T08:13:09.891Z,971.72
2019-03-03T08:14:04.614Z,971.61
2019-03-03T08:15:04.787Z,971.63
2019-03-03T08:16:04.742Z,971.55
2019-03-03T08:17:05.484Z,971.58
2019-03-03T08:18:04.630Z,971.55
2019-03-03T08:19:04.793Z,971.55
2019-03-03T08:20:05.666Z,971.49
2019-03-03T08:21:04.924Z,971.63
2019-03-03T08:22:05.144Z,971.57
2019-03-03T08:23:04.789Z,971.54
2019-03-03T08:24:04.555Z,971.60
2019-03-03T08:25:05.209Z,971.60
2019-03-03T08:26:07.016Z,971.43
2019-03-03T08:27:05.197Z,971.43
2019-03-03T08:28:04.699Z,971.52
2019-03-03T08:29:09.813Z,971.57
2019-03-03T08:30:05.269Z,971.57
2019-03-03T08:31:04.588Z,971.51
2019-03-03T08:32:05.394Z,971.60
2019-03-03T08:33:04.525Z,971.60
2019-03-03T08:34:04.794Z,971.54
2019-03-03T08:35:04.729Z,971.49
2019-03-03T08:36:05.501Z,971.46
2019-03-03T08:37:04.745Z,971.46
2019-03-03T08:38:05.019Z,971.48
2019-03-03T08:39:05.341Z,971.60
2019-03-03T08:40:04.736Z,971.48
2019-03-03T08:41:04.981Z,971.57
2019-03-03T08:42:05.206Z,971.45
2019-03-03T08:43:04.823Z,971.45
2019-03-03T08:44:05.316Z,971.48
2019-03-03T08:45:04.690Z,971.42
2019-03-03T08:46:04.939Z,971.42
2019-03-03T08:47:04.997Z,971.48
2019-03-03T08:48:05.060Z,971.54
2019-03-03T08:49:04.539Z,971.59
2019-03-03T08:50:05.378Z,971.53
2019-03-03T08:51:04.729Z,971.42
2019-03-03T08:52:04.899Z,971.48
2019-03-03T08:53:05.418Z,971.50
2019-03-03T08:54:05.521Z,971.36
2019-03-03T08:55:04.930Z,971.25
2019-03-03T08:56:04.708Z,971.33
2019-03-03T08:57:04.829Z,971.30
2019-03-03T08:58:04.962Z,971.33
2019-03-03T08:59:04.849Z,971.27
2019-03-03T09:00:05.573Z,971.35
2019-03-03T09:01:04.579Z,971.32
2019-03-03T09:02:04.748Z,971.26
2019-03-03T09:03:05.033Z,971.38
2019-03-03T09:04:05.057Z,971.40
2019-03-03T09:05:05.298Z,971.32
2019-03-03T09:06:05.364Z,971.15
2019-03-03T09:07:04.933Z,971.40
2019-03-03T09:08:04.729Z,971.40
2019-03-03T09:09:05.040Z,971.37
2019-03-03T09:10:05.338Z,971.48
2019-03-03T09:11:05.360Z,971.45
2019-03-03T09:12:04.479Z,971.57
2019-03-03T09:13:04.584Z,971.34
2019-03-03T09:14:05.153Z,971.51
2019-03-03T09:15:05.054Z,971.42
2019-03-03T09:16:05.081Z,971.34
2019-03-03T09:17:04.714Z,971.45
2019-03-03T09:18:05.047Z,971.34
2019-03-03T09:19:05.170Z,971.40
2019-03-03T09:20:04.848Z,971.42
2019-03-03T09:21:04.956Z,971.25
2019-03-03T09:22:05.156Z,971.39
2019-03-03T09:23:05.197Z,971.31
2019-03-03T09:24:04.786Z,971.36
2019-03-03T09:25:04.817Z,971.25
2019-03-03T09:26:05.232Z,971.11
2019-03-03T09:27:05.408Z,971.34
2019-03-03T09:28:04.623Z,971.22
2019-03-03T09:29:09.842Z,971.19
2019-03-03T09:30:05.272Z,971.30
2019-03-03T09:31:05.266Z,971.22
2019-03-03T09:32:05.341Z,971.30
2019-03-03T09:33:04.654Z,971.36
2019-03-03T09:34:04.973Z,971.42
2019-03-03T09:35:04.669Z,971.53
2019-03-03T09:36:04.677Z,971.33
2019-03-03T09:37:05.262Z,971.47
2019-03-03T09:38:05.218Z,971.33
2019-03-03T09:39:05.981Z,971.33
2019-03-03T09:40:10.017Z,971.24
2019-03-03T09:41:04.606Z,971.30
2019-03-03T09:42:05.067Z,971.27
2019-03-03T09:43:05.316Z,971.36
2019-03-03T09:44:05.355Z,971.30
2019-03-03T09:45:05.090Z,971.30
2019-03-03T09:46:04.407Z,971.10
2019-03-03T09:47:04.604Z,971.27
2019-03-03T09:48:04.601Z,971.15
2019-03-03T09:49:10.361Z,971.30
2019-03-03T09:50:04.570Z,971.27
2019-03-03T09:51:04.753Z,971.26
2019-03-03T09:52:04.768Z,971.32
2019-03-03T09:53:05.328Z,971.29
2019-03-03T09:54:05.368Z,971.29
2019-03-03T09:55:04.415Z,971.26
2019-03-03T09:56:04.614Z,971.21
2019-03-03T09:57:04.735Z,971.26
2019-03-03T09:58:05.301Z,971.29
2019-03-03T09:59:04.903Z,971.32
2019-03-03T10:00:05.072Z,971.23
2019-03-03T10:01:05.307Z,971.18
2019-03-03T10:02:04.862Z,971.26
2019-03-03T10:03:05.327Z,971.12
2019-03-03T10:04:05.428Z,971.17
2019-03-03T10:05:04.453Z,971.14
2019-03-03T10:06:04.587Z,971.28
2019-03-03T10:07:04.743Z,971.25
2019-03-03T10:08:04.411Z,971.20
2019-03-03T10:09:04.671Z,971.17
2019-03-03T10:10:05.176Z,971.08
2019-03-03T10:11:04.616Z,971.19
2019-03-03T10:12:04.594Z,971.16
2019-03-03T10:13:04.617Z,971.22
2019-03-03T10:14:05.082Z,971.27
2019-03-03T10:15:05.225Z,971.19
2019-03-03T10:16:05.375Z,971.22
2019-03-03T10:17:05.457Z,971.27
2019-03-03T10:18:05.198Z,971.27
2019-03-03T10:19:07.542Z,971.30
2019-03-03T10:20:05.227Z,971.35
2019-03-03T10:21:04.835Z,971.32
2019-03-03T10:22:04.962Z,971.38
2019-03-03T10:23:04.910Z,971.32
2019-03-03T10:24:04.995Z,971.24
2019-03-03T10:25:05.140Z,971.43
2019-03-03T10:26:05.399Z,971.41
2019-03-03T10:27:05.418Z,971.32
2019-03-03T10:28:04.926Z,971.52
2019-03-03T10:29:10.346Z,971.32
2019-03-03T10:30:04.599Z,971.41
2019-03-03T10:31:04.774Z,971.41
2019-03-03T10:32:05.127Z,971.58
2019-03-03T10:33:05.303Z,971.49
2019-03-03T10:34:05.335Z,971.41
2019-03-03T10:35:05.245Z,971.55
2019-03-03T10:36:04.517Z,971.41
2019-03-03T10:37:04.746Z,971.58
2019-03-03T10:38:05.046Z,971.53
2019-03-03T10:39:04.525Z,971.55
2019-03-03T10:40:04.469Z,971.47
2019-03-03T10:41:04.603Z,971.44
2019-03-03T10:42:04.525Z,971.50
2019-03-03T10:43:04.451Z,971.56
2019-03-03T10:44:04.463Z,971.53
2019-03-03T10:45:04.509Z,971.36
2019-03-03T10:46:04.407Z,971.39
2019-03-03T10:47:04.453Z,971.44
2019-03-03T10:48:04.597Z,971.42
2019-03-03T10:49:05.025Z,971.33
2019-03-03T10:50:04.988Z,971.30
2019-03-03T10:51:04.558Z,971.44
2019-03-03T10:52:04.535Z,971.33
2019-03-03T10:53:09.596Z,971.47
2019-03-03T10:54:04.937Z,971.24
2019-03-03T10:55:05.050Z,971.35
2019-03-03T10:56:04.910Z,971.47
2019-03-03T10:57:04.644Z,971.21
2019-03-03T10:58:05.037Z,971.38
2019-03-03T10:59:04.532Z,971.41
2019-03-03T11:00:04.731Z,971.38
2019-03-03T11:01:05.306Z,971.46
2019-03-03T11:02:04.499Z,971.49
2019-03-03T11:03:04.424Z,971.49
2019-03-03T11:04:04.610Z,971.46
2019-03-03T11:05:04.741Z,971.49
2019-03-03T11:06:04.964Z,971.43
2019-03-03T11:07:04.474Z,971.43
2019-03-03T11:08:04.498Z,971.43
2019-03-03T11:09:04.691Z,971.49
2019-03-03T11:10:04.653Z,971.43
2019-03-03T11:11:05.225Z,971.32
2019-03-03T11:12:05.165Z,971.26
2019-03-03T11:13:05.300Z,971.26
2019-03-03T11:14:05.433Z,971.35
2019-03-03T11:15:04.504Z,971.38
2019-03-03T11:16:05.111Z,971.21
2019-03-03T11:17:05.101Z,971.23
2019-03-03T11:18:04.677Z,971.23
2019-03-03T11:19:04.926Z,971.26
2019-03-03T11:20:04.439Z,971.29
2019-03-03T11:21:04.932Z,971.26
2019-03-03T11:22:05.538Z,971.20
2019-03-03T11:23:05.377Z,971.23
2019-03-03T11:24:04.889Z,971.25
2019-03-03T11:25:05.167Z,971.25
2019-03-03T11:26:05.294Z,971.08
2019-03-03T11:27:04.614Z,971.14
2019-03-03T11:28:04.807Z,971.08
2019-03-03T11:29:09.793Z,971.19
2019-03-03T11:30:05.112Z,971.19
2019-03-03T11:31:05.117Z,971.13
2019-03-03T11:32:06.327Z,971.10
2019-03-03T11:33:04.491Z,971.01
2019-03-03T11:34:05.359Z,971.24
2019-03-03T11:35:04.478Z,971.04
2019-03-03T11:36:04.979Z,970.98
2019-03-03T11:37:05.249Z,971.12
2019-03-03T11:38:05.351Z,970.98
2019-03-03T11:39:04.921Z,970.92
2019-03-03T11:40:04.953Z,970.89
2019-03-03T11:41:05.007Z,970.86
2019-03-03T11:42:04.471Z,970.86
2019-03-03T11:43:04.513Z,970.85
2019-03-03T11:44:04.608Z,970.80
2019-03-03T11:45:04.581Z,970.82
2019-03-03T11:46:04.765Z,970.93
2019-03-03T11:47:04.815Z,970.79
2019-03-03T11:48:05.045Z,970.96
2019-03-03T11:49:04.847Z,970.91
2019-03-03T11:50:05.076Z,970.93
2019-03-03T11:51:04.745Z,970.96
2019-03-03T11:52:05.380Z,971.02
2019-03-03T11:53:05.393Z,970.96
2019-03-03T11:54:05.410Z,970.99
2019-03-03T11:55:04.817Z,970.96
2019-03-03T11:56:05.333Z,970.88
2019-03-03T11:57:05.403Z,970.90
2019-03-03T11:58:04.825Z,970.93
2019-03-03T11:59:05.120Z,970.99
2019-03-03T12:00:05.075Z,970.90
2019-03-03T12:01:10.199Z,970.82
2019-03-03T12:02:04.569Z,971.02
2019-03-03T12:03:04.476Z,971.02
2019-03-03T12:04:04.656Z,970.93
2019-03-03T12:05:04.602Z,970.91
2019-03-03T12:06:04.675Z,971.05
2019-03-03T12:07:05.188Z,970.93
2019-03-03T12:08:05.292Z,971.05
2019-03-03T12:09:05.352Z,971.05
2019-03-03T12:10:05.296Z,970.99
2019-03-03T12:11:04.836Z,971.07
2019-03-03T12:12:05.229Z,971.02
2019-03-03T12:13:05.313Z,970.99
2019-03-03T12:14:04.857Z,970.93
2019-03-03T12:15:05.110Z,970.90
2019-03-03T12:16:05.287Z,971.07
2019-03-03T12:17:04.870Z,970.90
2019-03-03T12:18:05.023Z,970.93
2019-03-03T12:19:04.541Z,970.90
2019-03-03T12:20:04.555Z,970.98
2019-03-03T12:21:05.163Z,970.92
2019-03-03T12:22:05.255Z,971.10
2019-03-03T12:23:05.213Z,970.92
2019-03-03T12:24:05.404Z,971.09
2019-03-03T12:25:05.292Z,970.81
2019-03-03T12:26:05.074Z,970.95
2019-03-03T12:27:05.413Z,970.95
2019-03-03T12:28:04.683Z,970.89